You are not logged in, Click here to log in
ICAO: LIRF Country: 義大利拉齊奧大區羅馬省菲烏米奇諾
Latitude: 41.7999 Longitude: 12.2462
Total Arrivals: 13 Total Departures: 13
Latest Arrival: IG1115 (ENGM-LIRF)Jason. Li Latest Departure: FR6984D (LIRF-EDLW)Stone. Chang
Scenery:
METAR : LIRF 210750Z 10004KT 060V150 CAVOK 27/17 Q1017 NOSIG

羅馬-菲烏米奇諾機場